sensor_id;sensor_type;location;lat;lon;timestamp;pressure;altitude;pressure_sealevel;temperature;humidity
39823;BME280;25499;53.958;10.970;2023-04-10T06:58:06;102249.28;;;8.06;100.00
39823;BME280;25499;53.958;10.970;2023-04-10T07:00:32;102241.56;;;8.36;100.00
39823;BME280;25499;53.958;10.970;2023-04-10T07:02:58;102237.94;;;8.58;100.00
39823;BME280;25499;53.958;10.970;2023-04-10T07:05:23;102227.69;;;8.34;100.00
39823;BME280;25499;53.958;10.970;2023-04-10T07:07:49;102229.38;;;8.61;100.00
39823;BME280;25499;53.958;10.970;2023-04-10T07:10:15;102232.81;;;8.92;100.00
39823;BME280;25499;53.958;10.970;2023-04-10T07:12:40;102225.66;;;8.83;100.00
39823;BME280;25499;53.958;10.970;2023-04-10T07:15:06;102229.50;;;8.98;100.00
39823;BME280;25499;53.958;10.970;2023-04-10T07:17:33;102225.06;;;9.25;100.00
39823;BME280;25499;53.958;10.970;2023-04-10T07:19:59;102222.13;;;9.11;100.00
39823;BME280;25499;53.958;10.970;2023-04-10T07:22:24;102224.16;;;9.23;100.00
39823;BME280;25499;53.958;10.970;2023-04-10T07:24:52;102228.06;;;9.41;100.00
39823;BME280;25499;53.958;10.970;2023-04-10T07:27:18;102231.44;;;9.38;100.00
39823;BME280;25499;53.958;10.970;2023-04-10T07:29:44;102232.41;;;9.40;100.00
39823;BME280;25499;53.958;10.970;2023-04-10T07:32:11;102222.78;;;9.38;100.00
39823;BME280;25499;53.958;10.970;2023-04-10T07:34:37;102209.75;;;9.36;100.00
39823;BME280;25499;53.958;10.970;2023-04-10T07:37:02;102217.81;;;9.47;100.00
39823;BME280;25499;53.958;10.970;2023-04-10T07:39:29;102214.59;;;9.56;100.00
39823;BME280;25499;53.958;10.970;2023-04-10T07:41:54;102211.19;;;9.60;100.00
39823;BME280;25499;53.958;10.970;2023-04-10T07:44:20;102220.88;;;10.02;100.00
39823;BME280;25499;53.958;10.970;2023-04-10T07:46:46;102194.81;;;10.00;99.82
39823;BME280;25499;53.958;10.970;2023-04-10T07:49:11;102198.16;;;10.33;99.45
39823;BME280;25499;53.958;10.970;2023-04-10T07:51:37;102193.25;;;10.48;98.43
39823;BME280;25499;53.958;10.970;2023-04-10T07:54:04;102185.50;;;10.50;96.12
39823;BME280;25499;53.958;10.970;2023-04-10T07:56:30;102180.00;;;10.36;93.48
39823;BME280;25499;53.958;10.970;2023-04-10T07:58:58;102176.53;;;10.37;93.81
39823;BME280;25499;53.958;10.970;2023-04-10T08:01:25;102172.63;;;10.18;91.78
39823;BME280;25499;53.958;10.970;2023-04-10T08:03:51;102168.22;;;10.14;91.81
39823;BME280;25499;53.958;10.970;2023-04-10T08:06:17;102175.56;;;10.32;91.91
39823;BME280;25499;53.958;10.970;2023-04-10T08:08:42;102176.56;;;10.38;91.01
39823;BME280;25499;53.958;10.970;2023-04-10T08:11:30;102155.06;;;10.07;88.84
39823;BME280;25499;53.958;10.970;2023-04-10T08:13:58;102154.06;;;10.42;87.99
39823;BME280;25499;53.958;10.970;2023-04-10T08:16:32;102149.94;;;10.52;87.71
39823;BME280;25499;53.958;10.970;2023-04-10T08:18:59;102161.09;;;10.90;87.16
39823;BME280;25499;53.958;10.970;2023-04-10T08:21:26;102146.53;;;11.03;84.95
39823;BME280;25499;53.958;10.970;2023-04-10T08:23:53;102143.97;;;11.58;84.10
39823;BME280;25499;53.958;10.970;2023-04-10T08:26:20;102125.25;;;11.87;81.96
39823;BME280;25499;53.958;10.970;2023-04-10T08:28:50;102127.44;;;12.17;81.03
39823;BME280;25499;53.958;10.970;2023-04-10T08:31:19;102095.00;;;12.01;78.69
39823;BME280;25499;53.958;10.970;2023-04-10T08:33:49;102093.50;;;12.17;78.12
39823;BME280;25499;53.958;10.970;2023-04-10T08:36:15;102112.31;;;12.66;78.52
39823;BME280;25499;53.958;10.970;2023-04-10T08:38:44;102075.66;;;12.60;75.52
39823;BME280;25499;53.958;10.970;2023-04-10T08:41:14;102080.25;;;12.86;74.97
39823;BME280;25499;53.958;10.970;2023-04-10T08:43:40;102073.50;;;13.13;74.31
39823;BME280;25499;53.958;10.970;2023-04-10T08:46:06;102060.53;;;13.28;72.25
39823;BME280;25499;53.958;10.970;2023-04-10T08:48:41;102060.81;;;13.67;72.00
39823;BME280;25499;53.958;10.970;2023-04-10T08:51:13;102060.88;;;13.82;70.68
39823;BME280;25499;53.958;10.970;2023-04-10T08:53:42;102036.44;;;13.85;69.65
39823;BME280;25499;53.958;10.970;2023-04-10T08:56:11;102031.22;;;13.86;68.51
39823;BME280;25499;53.958;10.970;2023-04-10T08:58:38;102060.19;;;14.29;69.34
39823;BME280;25499;53.958;10.970;2023-04-10T09:01:05;102007.69;;;13.94;67.01
39823;BME280;25499;53.958;10.970;2023-04-10T09:03:33;101995.34;;;13.59;67.30
39823;BME280;25499;53.958;10.970;2023-04-10T09:06:02;102027.75;;;13.95;67.30
39823;BME280;25499;53.958;10.970;2023-04-10T09:08:29;102044.53;;;14.60;67.16
39823;BME280;25499;53.958;10.970;2023-04-10T09:10:54;102005.22;;;14.68;65.92
39823;BME280;25499;53.958;10.970;2023-04-10T09:13:53;101978.13;;;14.64;64.82
39823;BME280;25499;53.958;10.970;2023-04-10T09:16:27;102020.94;;;15.14;65.76
39823;BME280;25499;53.958;10.970;2023-04-10T09:18:52;102013.84;;;15.47;64.62
39823;BME280;25499;53.958;10.970;2023-04-10T09:21:20;101979.81;;;15.19;63.46
39823;BME280;25499;53.958;10.970;2023-04-10T09:23:47;101963.22;;;15.11;63.43
39823;BME280;25499;53.958;10.970;2023-04-10T09:26:26;101942.06;;;15.57;62.16
39823;BME280;25499;53.958;10.970;2023-04-10T09:29:14;101923.94;;;14.88;60.75
39823;BME280;25499;53.958;10.970;2023-04-10T09:31:41;101974.47;;;15.45;62.26
39823;BME280;25499;53.958;10.970;2023-04-10T09:36:53;101934.25;;;15.40;60.31
39823;BME280;25499;53.958;10.970;2023-04-10T09:39:20;101940.22;;;15.73;59.11
39823;BME280;25499;53.958;10.970;2023-04-10T09:44:13;101923.63;;;15.70;59.08
39823;BME280;25499;53.958;10.970;2023-04-10T09:46:42;101900.00;;;15.76;58.43
39823;BME280;25499;53.958;10.970;2023-04-10T09:49:08;101885.88;;;15.92;52.43
39823;BME280;25499;53.958;10.970;2023-04-10T09:51:34;101934.34;;;16.64;59.46
39823;BME280;25499;53.958;10.970;2023-04-10T09:54:01;101888.19;;;16.31;57.61
39823;BME280;25499;53.958;10.970;2023-04-10T09:56:28;101880.16;;;16.48;57.16
39823;BME280;25499;53.958;10.970;2023-04-10T09:58:58;101878.56;;;16.33;57.07
39823;BME280;25499;53.958;10.970;2023-04-10T10:01:27;101908.13;;;17.39;57.74
39823;BME280;25499;53.958;10.970;2023-04-10T10:03:54;101880.06;;;16.60;56.92
39823;BME280;25499;53.958;10.970;2023-04-10T10:06:21;101901.53;;;17.04;57.11
39823;BME280;25499;53.958;10.970;2023-04-10T10:08:48;101856.13;;;16.88;56.34
39823;BME280;25499;53.958;10.970;2023-04-10T10:11:17;101874.06;;;17.26;56.18
39823;BME280;25499;53.958;10.970;2023-04-10T10:13:49;101836.06;;;17.46;54.84
39823;BME280;25499;53.958;10.970;2023-04-10T10:16:49;101816.84;;;17.39;53.87
39823;BME280;25499;53.958;10.970;2023-04-10T10:19:18;101850.72;;;18.70;55.56
39823;BME280;25499;53.958;10.970;2023-04-10T10:21:46;101809.47;;;20.22;48.96
39823;BME280;25499;53.958;10.970;2023-04-10T10:24:12;101747.41;;;20.35;47.31
39823;BME280;25499;53.958;10.970;2023-04-10T10:26:38;101687.63;;;20.28;45.08
39823;BME280;25499;53.958;10.970;2023-04-10T10:29:06;101743.84;;;22.31;45.05
39823;BME280;25499;53.958;10.970;2023-04-10T10:31:36;101702.56;;;22.93;43.02
39823;BME280;25499;53.958;10.970;2023-04-10T10:34:03;101696.78;;;22.36;42.29
39823;BME280;25499;53.958;10.970;2023-04-10T10:36:31;101696.69;;;22.39;42.45
39823;BME280;25499;53.958;10.970;2023-04-10T10:39:25;101694.88;;;22.63;41.21
39823;BME280;25499;53.958;10.970;2023-04-10T10:42:08;101624.13;;;22.84;39.18
39823;BME280;25499;53.958;10.970;2023-04-10T10:44:42;101670.09;;;24.13;38.65
39823;BME280;25499;53.958;10.970;2023-04-10T10:47:21;101635.25;;;23.16;38.35
39823;BME280;25499;53.958;10.970;2023-04-10T10:49:58;101648.38;;;23.62;38.59
39823;BME280;25499;53.958;10.970;2023-04-10T10:57:53;101623.72;;;23.58;37.60
39823;BME280;25499;53.958;10.970;2023-04-10T11:00:20;101572.53;;;22.69;36.91
39823;BME280;25499;53.958;10.970;2023-04-10T11:11:10;101583.44;;;23.04;36.96
39823;BME280;25499;53.958;10.970;2023-04-10T11:13:38;101594.06;;;24.07;35.62
39823;BME280;25499;53.958;10.970;2023-04-10T11:16:07;101610.88;;;23.68;37.06
39823;BME280;25499;53.958;10.970;2023-04-10T11:21:14;101568.66;;;24.93;31.65
39823;BME280;25499;53.958;10.970;2023-04-10T11:31:38;101577.13;;;23.29;35.52
39823;BME280;25499;53.958;10.970;2023-04-10T11:34:05;101489.56;;;22.20;34.24
39823;BME280;25499;53.958;10.970;2023-04-10T11:36:33;101518.69;;;22.22;35.57
39823;BME280;25499;53.958;10.970;2023-04-10T11:39:04;101502.81;;;23.07;34.42
39823;BME280;25499;53.958;10.970;2023-04-10T11:41:38;101513.06;;;23.35;35.23
39823;BME280;25499;53.958;10.970;2023-04-10T11:44:06;101520.72;;;23.43;35.07
39823;BME280;25499;53.958;10.970;2023-04-10T11:46:36;101515.59;;;22.54;36.42
39823;BME280;25499;53.958;10.970;2023-04-10T11:49:04;101547.19;;;23.65;36.73
39823;BME280;25499;53.958;10.970;2023-04-10T11:51:30;101449.31;;;22.73;34.51
39823;BME280;25499;53.958;10.970;2023-04-10T11:54:12;101389.91;;;21.69;34.74
39823;BME280;25499;53.958;10.970;2023-04-10T11:56:40;101471.13;;;21.46;36.64
39823;BME280;25499;53.958;10.970;2023-04-10T11:59:06;101457.03;;;21.46;36.09
39823;BME280;25499;53.958;10.970;2023-04-10T12:01:35;101416.97;;;20.29;36.35
39823;BME280;25499;53.958;10.970;2023-04-10T12:04:02;101425.50;;;21.38;36.06
39823;BME280;25499;53.958;10.970;2023-04-10T12:06:28;101424.91;;;21.55;36.15
39823;BME280;25499;53.958;10.970;2023-04-10T12:08:54;101362.41;;;21.02;34.52
39823;BME280;25499;53.958;10.970;2023-04-10T12:11:22;101395.25;;;19.92;36.73
39823;BME280;25499;53.958;10.970;2023-04-10T12:13:51;101450.88;;;20.43;37.83
39823;BME280;25499;53.958;10.970;2023-04-10T12:16:17;101434.97;;;19.89;38.14
39823;BME280;25499;53.958;10.970;2023-04-10T12:18:43;101460.31;;;20.25;39.33
39823;BME280;25499;53.958;10.970;2023-04-10T12:21:11;101407.38;;;19.98;37.90
39823;BME280;25499;53.958;10.970;2023-04-10T12:23:38;101443.72;;;20.20;37.98
39823;BME280;25499;53.958;10.970;2023-04-10T12:26:15;101445.03;;;20.06;39.07
39823;BME280;25499;53.958;10.970;2023-04-10T12:28:49;101465.13;;;20.92;39.20
39823;BME280;25499;53.958;10.970;2023-04-10T12:31:15;101412.19;;;20.67;37.93
39823;BME280;25499;53.958;10.970;2023-04-10T12:33:47;101410.66;;;20.33;39.13
39823;BME280;25499;53.958;10.970;2023-04-10T12:36:26;101427.59;;;20.54;38.55
39823;BME280;25499;53.958;10.970;2023-04-10T12:38:57;101397.78;;;20.22;39.01
39823;BME280;25499;53.958;10.970;2023-04-10T12:41:25;101396.19;;;19.90;38.86
39823;BME280;25499;53.958;10.970;2023-04-10T12:43:52;101423.81;;;19.80;40.13
39823;BME280;25499;53.958;10.970;2023-04-10T12:46:27;101380.59;;;18.91;40.55
39823;BME280;25499;53.958;10.970;2023-04-10T12:48:56;101456.97;;;19.90;41.97
39823;BME280;25499;53.958;10.970;2023-04-10T12:51:49;101400.53;;;19.63;40.80
39823;BME280;25499;53.958;10.970;2023-04-10T12:54:34;101402.78;;;19.77;41.30
39823;BME280;25499;53.958;10.970;2023-04-10T12:57:01;101373.84;;;18.47;41.48
39823;BME280;25499;53.958;10.970;2023-04-10T12:59:28;101392.66;;;18.67;42.33
39823;BME280;25499;53.958;10.970;2023-04-10T13:01:55;101384.78;;;18.66;42.36
39823;BME280;25499;53.958;10.970;2023-04-10T13:04:21;101414.78;;;18.96;43.24
39823;BME280;25499;53.958;10.970;2023-04-10T13:06:47;101369.84;;;18.64;42.56
39823;BME280;25499;53.958;10.970;2023-04-10T13:09:13;101363.53;;;18.70;42.66
39823;BME280;25499;53.958;10.970;2023-04-10T13:11:40;101383.44;;;18.49;42.64
39823;BME280;25499;53.958;10.970;2023-04-10T13:14:06;101340.03;;;17.92;42.62
39823;BME280;25499;53.958;10.970;2023-04-10T13:16:33;101373.91;;;18.09;44.35
39823;BME280;25499;53.958;10.970;2023-04-10T13:18:58;101329.06;;;17.73;42.93
39823;BME280;25499;53.958;10.970;2023-04-10T13:21:24;101326.47;;;17.32;43.64
39823;BME280;25499;53.958;10.970;2023-04-10T13:23:51;101358.19;;;17.28;44.60
39823;BME280;25499;53.958;10.970;2023-04-10T13:26:16;101372.59;;;17.50;45.38
39823;BME280;25499;53.958;10.970;2023-04-10T13:28:42;101357.09;;;17.37;45.88
39823;BME280;25499;53.958;10.970;2023-04-10T13:31:08;101344.56;;;17.48;44.79
39823;BME280;25499;53.958;10.970;2023-04-10T13:33:34;101339.03;;;17.20;45.47
39823;BME280;25499;53.958;10.970;2023-04-10T13:35:59;101354.84;;;17.20;45.93
39823;BME280;25499;53.958;10.970;2023-04-10T13:38:25;101328.88;;;17.03;45.33
39823;BME280;25499;53.958;10.970;2023-04-10T13:40:51;101338.44;;;17.05;45.54
39823;BME280;25499;53.958;10.970;2023-04-10T13:43:17;101322.78;;;17.01;46.64
39823;BME280;25499;53.958;10.970;2023-04-10T13:45:42;101352.25;;;17.17;46.21
39823;BME280;25499;53.958;10.970;2023-04-10T13:48:08;101339.16;;;17.13;46.51
39823;BME280;25499;53.958;10.970;2023-04-10T13:50:33;101318.28;;;17.06;46.51
39823;BME280;25499;53.958;10.970;2023-04-10T13:52:59;101385.88;;;17.44;48.44
39823;BME280;25499;53.958;10.970;2023-04-10T13:55:24;101343.88;;;17.40;48.10
39823;BME280;25499;53.958;10.970;2023-04-10T13:57:50;101322.97;;;17.32;47.74
39823;BME280;25499;53.958;10.970;2023-04-10T14:00:16;101321.69;;;17.11;47.59
39823;BME280;25499;53.958;10.970;2023-04-10T14:02:41;101335.47;;;17.22;48.40
39823;BME280;25499;53.958;10.970;2023-04-10T14:05:07;101335.38;;;17.27;48.11
39823;BME280;25499;53.958;10.970;2023-04-10T14:07:33;101352.75;;;17.34;48.20
39823;BME280;25499;53.958;10.970;2023-04-10T14:09:59;101301.75;;;17.01;47.24
39823;BME280;25499;53.958;10.970;2023-04-10T14:12:25;101295.06;;;16.81;47.63
39823;BME280;25499;53.958;10.970;2023-04-10T14:14:51;101253.22;;;16.70;46.67
39823;BME280;25499;53.958;10.970;2023-04-10T14:17:17;101282.25;;;16.64;48.15
39823;BME280;25499;53.958;10.970;2023-04-10T14:19:42;101289.38;;;16.59;48.53
39823;BME280;25499;53.958;10.970;2023-04-10T14:22:08;101289.41;;;16.57;48.84
39823;BME280;25499;53.958;10.970;2023-04-10T14:24:33;101272.09;;;16.46;48.40
39823;BME280;25499;53.958;10.970;2023-04-10T14:26:59;101266.75;;;16.52;48.04
39823;BME280;25499;53.958;10.970;2023-04-10T14:29:27;101265.00;;;16.51;48.66
39823;BME280;25499;53.958;10.970;2023-04-10T14:31:52;101243.22;;;16.44;48.03
39823;BME280;25499;53.958;10.970;2023-04-10T14:34:18;101230.38;;;16.29;47.92
39823;BME280;25499;53.958;10.970;2023-04-10T14:36:43;101244.44;;;16.28;48.80
39823;BME280;25499;53.958;10.970;2023-04-10T14:39:09;101219.34;;;16.10;49.23
39823;BME280;25499;53.958;10.970;2023-04-10T14:41:34;101240.13;;;16.23;48.97
39823;BME280;25499;53.958;10.970;2023-04-10T14:44:01;101248.03;;;16.22;49.86
39823;BME280;25499;53.958;10.970;2023-04-10T14:46:26;101227.13;;;16.16;49.88
39823;BME280;25499;53.958;10.970;2023-04-10T14:48:52;101216.72;;;16.10;49.79
39823;BME280;25499;53.958;10.970;2023-04-10T14:51:17;101217.56;;;16.12;50.17
39823;BME280;25499;53.958;10.970;2023-04-10T14:53:44;101217.78;;;15.99;51.07
39823;BME280;25499;53.958;10.970;2023-04-10T14:56:14;101213.44;;;15.98;51.29
39823;BME280;25499;53.958;10.970;2023-04-10T14:58:40;101203.09;;;15.89;50.52
39823;BME280;25499;53.958;10.970;2023-04-10T15:01:09;101211.88;;;15.87;51.08
39823;BME280;25499;53.958;10.970;2023-04-10T15:03:36;101187.66;;;15.69;51.04
39823;BME280;25499;53.958;10.970;2023-04-10T15:06:01;101185.13;;;15.63;51.05
39823;BME280;25499;53.958;10.970;2023-04-10T15:08:27;101188.50;;;15.70;50.81
39823;BME280;25499;53.958;10.970;2023-04-10T15:10:52;101181.59;;;15.65;50.98
39823;BME280;25499;53.958;10.970;2023-04-10T15:13:19;101185.97;;;15.66;51.52
39823;BME280;25499;53.958;10.970;2023-04-10T15:15:45;101179.81;;;15.67;51.28
39823;BME280;25499;53.958;10.970;2023-04-10T15:18:12;101176.19;;;15.75;51.17
39823;BME280;25499;53.958;10.970;2023-04-10T15:20:38;101180.78;;;15.62;52.07
39823;BME280;25499;53.958;10.970;2023-04-10T15:23:03;101183.38;;;15.65;51.83
39823;BME280;25499;53.958;10.970;2023-04-10T15:25:29;101184.31;;;15.59;52.51
39823;BME280;25499;53.958;10.970;2023-04-10T15:27:56;101178.97;;;15.65;52.68
39823;BME280;25499;53.958;10.970;2023-04-10T15:30:22;101163.31;;;15.59;51.94
39823;BME280;25499;53.958;10.970;2023-04-10T15:32:47;101178.16;;;15.63;52.69
39823;BME280;25499;53.958;10.970;2023-04-10T15:35:12;101139.75;;;15.56;52.20
39823;BME280;25499;53.958;10.970;2023-04-10T15:37:38;101151.94;;;15.60;52.18
39823;BME280;25499;53.958;10.970;2023-04-10T15:40:04;101144.16;;;15.54;51.64
39823;BME280;25499;53.958;10.970;2023-04-10T15:42:30;101143.31;;;15.54;51.85
39823;BME280;25499;53.958;10.970;2023-04-10T15:44:56;101136.16;;;15.63;52.24
39823;BME280;25499;53.958;10.970;2023-04-10T15:47:21;101114.25;;;15.63;51.98
39823;BME280;25499;53.958;10.970;2023-04-10T15:49:47;101115.19;;;15.62;52.41
39823;BME280;25499;53.958;10.970;2023-04-10T15:52:12;101106.59;;;15.52;52.00
39823;BME280;25499;53.958;10.970;2023-04-10T15:54:38;101105.75;;;15.50;52.34
39823;BME280;25499;53.958;10.970;2023-04-10T15:57:04;101099.78;;;15.42;52.83
39823;BME280;25499;53.958;10.970;2023-04-10T15:59:31;101106.59;;;15.52;53.63
39823;BME280;25499;53.958;10.970;2023-04-10T16:01:57;101104.03;;;15.49;52.83
39823;BME280;25499;53.958;10.970;2023-04-10T16:04:22;101082.31;;;15.39;52.58
39823;BME280;25499;53.958;10.970;2023-04-10T16:06:48;101085.03;;;15.35;53.03
39823;BME280;25499;53.958;10.970;2023-04-10T16:09:13;101080.81;;;15.27;52.91
39823;BME280;25499;53.958;10.970;2023-04-10T16:11:39;101073.06;;;15.18;53.08
39823;BME280;25499;53.958;10.970;2023-04-10T16:14:04;101070.53;;;15.14;53.48
39823;BME280;25499;53.958;10.970;2023-04-10T16:16:30;101060.00;;;15.15;53.59
39823;BME280;25499;53.958;10.970;2023-04-10T16:18:55;101053.88;;;15.16;53.46
39823;BME280;25499;53.958;10.970;2023-04-10T16:21:24;101040.97;;;15.05;52.68
39823;BME280;25499;53.958;10.970;2023-04-10T16:23:50;101052.31;;;15.06;52.99
39823;BME280;25499;53.958;10.970;2023-04-10T16:26:16;101042.69;;;15.06;53.43
39823;BME280;25499;53.958;10.970;2023-04-10T16:28:42;101028.94;;;14.92;53.19
39823;BME280;25499;53.958;10.970;2023-04-10T16:31:08;101032.44;;;14.91;53.08
39823;BME280;25499;53.958;10.970;2023-04-10T16:33:33;101018.50;;;14.90;52.70
39823;BME280;25499;53.958;10.970;2023-04-10T16:35:59;101014.16;;;14.88;53.23
39823;BME280;25499;53.958;10.970;2023-04-10T16:38:29;100998.41;;;14.89;53.19
39823;BME280;25499;53.958;10.970;2023-04-10T16:40:55;100995.06;;;14.78;53.33
39823;BME280;25499;53.958;10.970;2023-04-10T16:43:21;100989.84;;;14.78;52.81
39823;BME280;25499;53.958;10.970;2023-04-10T16:45:59;100986.31;;;14.81;53.39
39823;BME280;25499;53.958;10.970;2023-04-10T16:48:25;100999.44;;;14.79;54.09
39823;BME280;25499;53.958;10.970;2023-04-10T16:50:50;100996.00;;;14.77;54.29
39823;BME280;25499;53.958;10.970;2023-04-10T16:53:17;100993.50;;;14.68;53.77
39823;BME280;25499;53.958;10.970;2023-04-10T16:55:45;100968.13;;;14.71;53.22
39823;BME280;25499;53.958;10.970;2023-04-10T16:58:11;100995.31;;;14.64;54.22
39823;BME280;25499;53.958;10.970;2023-04-10T17:00:36;100968.31;;;14.59;53.48
39823;BME280;25499;53.958;10.970;2023-04-10T17:03:04;100977.06;;;14.60;53.71
39823;BME280;25499;53.958;10.970;2023-04-10T17:05:35;100970.22;;;14.49;53.98
39823;BME280;25499;53.958;10.970;2023-04-10T17:08:02;100980.75;;;14.45;53.94
39823;BME280;25499;53.958;10.970;2023-04-10T17:10:28;100982.44;;;14.47;54.46
39823;BME280;25499;53.958;10.970;2023-04-10T17:12:54;100977.25;;;14.44;54.64
39823;BME280;25499;53.958;10.970;2023-04-10T17:15:19;100959.91;;;14.37;54.40
39823;BME280;25499;53.958;10.970;2023-04-10T17:17:45;100974.69;;;14.41;54.40
39823;BME280;25499;53.958;10.970;2023-04-10T17:20:11;100956.44;;;14.35;54.13
39823;BME280;25499;53.958;10.970;2023-04-10T17:22:36;100949.59;;;14.26;53.99
39823;BME280;25499;53.958;10.970;2023-04-10T17:25:04;100960.06;;;14.28;54.71
39823;BME280;25499;53.958;10.970;2023-04-10T17:27:29;100961.03;;;14.21;54.64
39823;BME280;25499;53.958;10.970;2023-04-10T17:29:55;100950.66;;;14.14;55.14
39823;BME280;25499;53.958;10.970;2023-04-10T17:32:20;100941.03;;;14.13;54.79
39823;BME280;25499;53.958;10.970;2023-04-10T17:34:46;100946.38;;;14.09;55.15
39823;BME280;25499;53.958;10.970;2023-04-10T17:37:11;100935.00;;;14.08;55.29
39823;BME280;25499;53.958;10.970;2023-04-10T17:39:36;100939.47;;;14.02;55.57
39823;BME280;25499;53.958;10.970;2023-04-10T17:42:02;100928.28;;;13.92;56.34
39823;BME280;25499;53.958;10.970;2023-04-10T17:44:27;100924.78;;;13.91;55.93
39823;BME280;25499;53.958;10.970;2023-04-10T17:46:53;100935.28;;;13.88;56.20
39823;BME280;25499;53.958;10.970;2023-04-10T17:49:20;100925.75;;;13.86;56.06
39823;BME280;25499;53.958;10.970;2023-04-10T17:51:45;100930.16;;;13.84;56.73
39823;BME280;25499;53.958;10.970;2023-04-10T17:54:11;100934.47;;;13.85;57.08
39823;BME280;25499;53.958;10.970;2023-04-10T17:56:36;100929.38;;;13.75;57.51
39823;BME280;25499;53.958;10.970;2023-04-10T17:59:02;100928.50;;;13.76;57.18
39823;BME280;25499;53.958;10.970;2023-04-10T18:01:28;100925.91;;;13.73;57.65
39823;BME280;25499;53.958;10.970;2023-04-10T18:03:56;100919.81;;;13.73;57.41
39823;BME280;25499;53.958;10.970;2023-04-10T18:06:23;100914.69;;;13.65;57.75
39823;BME280;25499;53.958;10.970;2023-04-10T18:08:48;100919.06;;;13.65;57.79
39823;BME280;25499;53.958;10.970;2023-04-10T18:11:14;100923.53;;;13.55;58.09
39823;BME280;25499;53.958;10.970;2023-04-10T18:13:40;100906.91;;;13.59;57.81
39823;BME280;25499;53.958;10.970;2023-04-10T18:16:06;100911.34;;;13.54;57.70
39823;BME280;25499;53.958;10.970;2023-04-10T18:18:33;100907.03;;;13.51;57.59
39823;BME280;25499;53.958;10.970;2023-04-10T18:21:03;100893.06;;;13.51;56.96
39823;BME280;25499;53.958;10.970;2023-04-10T18:23:29;100876.50;;;13.52;57.10
39823;BME280;25499;53.958;10.970;2023-04-10T18:25:55;100877.34;;;13.52;56.91
39823;BME280;25499;53.958;10.970;2023-04-10T18:28:22;100881.75;;;13.49;56.66
39823;BME280;25499;53.958;10.970;2023-04-10T18:30:47;100879.09;;;13.53;56.18
39823;BME280;25499;53.958;10.970;2023-04-10T18:33:13;100893.97;;;13.48;56.70
39823;BME280;25499;53.958;10.970;2023-04-10T18:35:45;100866.88;;;13.52;56.08
39823;BME280;25499;53.958;10.970;2023-04-10T18:38:11;100873.06;;;13.47;56.36
39823;BME280;25499;53.958;10.970;2023-04-10T18:40:36;100882.69;;;13.45;56.68
39823;BME280;25499;53.958;10.970;2023-04-10T18:43:02;100878.38;;;13.40;56.87
39823;BME280;25499;53.958;10.970;2023-04-10T18:45:27;100878.44;;;13.37;56.80
39823;BME280;25499;53.958;10.970;2023-04-10T18:47:52;100869.78;;;13.29;56.73
39823;BME280;25499;53.958;10.970;2023-04-10T18:50:18;100854.84;;;13.39;56.78
39823;BME280;25499;53.958;10.970;2023-04-10T18:52:43;100871.47;;;13.35;56.78
39823;BME280;25499;53.958;10.970;2023-04-10T18:55:12;100871.59;;;13.24;57.36
39823;BME280;25499;53.958;10.970;2023-04-10T18:57:38;100865.47;;;13.25;56.98
39823;BME280;25499;53.958;10.970;2023-04-10T19:00:04;100860.19;;;13.28;57.20
39823;BME280;25499;53.958;10.970;2023-04-10T19:02:48;100857.63;;;13.23;57.53
39823;BME280;25499;53.958;10.970;2023-04-10T19:05:17;100859.41;;;13.20;57.93
39823;BME280;25499;53.958;10.970;2023-04-10T19:07:51;100859.44;;;13.18;57.88
39823;BME280;25499;53.958;10.970;2023-04-10T19:10:17;100852.50;;;13.16;58.28
39823;BME280;25499;53.958;10.970;2023-04-10T19:12:42;100863.00;;;13.13;58.09
39823;BME280;25499;53.958;10.970;2023-04-10T19:15:10;100857.78;;;13.13;58.44
39823;BME280;25499;53.958;10.970;2023-04-10T19:17:36;100849.09;;;13.09;58.68
39823;BME280;25499;53.958;10.970;2023-04-10T19:20:10;100848.19;;;13.12;57.96
39823;BME280;25499;53.958;10.970;2023-04-10T19:22:36;100853.44;;;13.10;58.25
39823;BME280;25499;53.958;10.970;2023-04-10T19:25:01;100854.31;;;13.11;58.62
39823;BME280;25499;53.958;10.970;2023-04-10T19:27:27;100851.69;;;13.14;58.65
39823;BME280;25499;53.958;10.970;2023-04-10T19:29:53;100850.00;;;13.06;58.80
39823;BME280;25499;53.958;10.970;2023-04-10T19:32:18;100847.34;;;13.11;58.94
39823;BME280;25499;53.958;10.970;2023-04-10T19:34:43;100848.38;;;12.95;59.24
39823;BME280;25499;53.958;10.970;2023-04-10T19:37:15;100844.84;;;13.02;59.19
39823;BME280;25499;53.958;10.970;2023-04-10T19:39:41;100843.16;;;12.96;59.63
39823;BME280;25499;53.958;10.970;2023-04-10T19:42:06;100830.00;;;13.05;59.23
39823;BME280;25499;53.958;10.970;2023-04-10T19:44:35;100830.94;;;12.98;59.34
39823;BME280;25499;53.958;10.970;2023-04-10T19:47:00;100829.25;;;12.94;59.68
39823;BME280;25499;53.958;10.970;2023-04-10T19:49:26;100841.47;;;12.91;60.24
39823;BME280;25499;53.958;10.970;2023-04-10T19:51:51;100828.38;;;12.94;60.29
39823;BME280;25499;53.958;10.970;2023-04-10T19:54:17;100817.97;;;12.89;59.67
